sensor_id;sensor_type;location;lat;lon;timestamp;P1;durP1;ratioP1;P2;durP2;ratioP2
37288;SDS011;23174;49.462;11.000;2023-03-12T00:01:41;7.32;;;5.88;;
37288;SDS011;23174;49.462;11.000;2023-03-12T00:03:42;7.22;;;6.43;;
37288;SDS011;23174;49.462;11.000;2023-03-12T00:05:43;6.80;;;6.05;;
37288;SDS011;23174;49.462;11.000;2023-03-12T00:07:44;6.38;;;5.50;;
37288;SDS011;23174;49.462;11.000;2023-03-12T00:09:45;5.82;;;5.28;;
37288;SDS011;23174;49.462;11.000;2023-03-12T00:11:45;5.88;;;5.38;;
37288;SDS011;23174;49.462;11.000;2023-03-12T00:13:50;8.48;;;5.93;;
37288;SDS011;23174;49.462;11.000;2023-03-12T00:15:51;7.82;;;5.60;;
37288;SDS011;23174;49.462;11.000;2023-03-12T00:17:52;6.63;;;5.32;;
37288;SDS011;23174;49.462;11.000;2023-03-12T00:19:53;7.07;;;5.38;;
37288;SDS011;23174;49.462;11.000;2023-03-12T00:21:53;7.20;;;5.53;;
37288;SDS011;23174;49.462;11.000;2023-03-12T00:23:54;5.72;;;5.03;;
37288;SDS011;23174;49.462;11.000;2023-03-12T00:25:59;5.40;;;4.85;;
37288;SDS011;23174;49.462;11.000;2023-03-12T00:28:00;5.65;;;5.03;;
37288;SDS011;23174;49.462;11.000;2023-03-12T00:30:01;5.97;;;5.15;;
37288;SDS011;23174;49.462;11.000;2023-03-12T00:32:02;6.78;;;5.32;;
37288;SDS011;23174;49.462;11.000;2023-03-12T00:34:03;5.55;;;5.05;;
37288;SDS011;23174;49.462;11.000;2023-03-12T00:36:04;8.63;;;5.47;;
37288;SDS011;23174;49.462;11.000;2023-03-12T00:38:05;7.28;;;5.72;;
37288;SDS011;23174;49.462;11.000;2023-03-12T00:40:06;6.80;;;5.53;;
37288;SDS011;23174;49.462;11.000;2023-03-12T00:42:08;6.95;;;6.15;;
37288;SDS011;23174;49.462;11.000;2023-03-12T00:44:09;6.68;;;5.45;;
37288;SDS011;23174;49.462;11.000;2023-03-12T00:46:09;6.35;;;5.75;;
37288;SDS011;23174;49.462;11.000;2023-03-12T00:48:10;7.70;;;5.40;;
37288;SDS011;23174;49.462;11.000;2023-03-12T00:50:10;6.10;;;5.53;;
37288;SDS011;23174;49.462;11.000;2023-03-12T00:52:11;8.30;;;6.15;;
37288;SDS011;23174;49.462;11.000;2023-03-12T00:54:11;6.75;;;5.53;;
37288;SDS011;23174;49.462;11.000;2023-03-12T00:56:12;7.10;;;6.20;;
37288;SDS011;23174;49.462;11.000;2023-03-12T00:58:13;7.05;;;6.32;;
37288;SDS011;23174;49.462;11.000;2023-03-12T01:00:14;8.50;;;7.18;;
37288;SDS011;23174;49.462;11.000;2023-03-12T01:02:15;8.27;;;6.78;;
37288;SDS011;23174;49.462;11.000;2023-03-12T01:04:15;11.82;;;7.43;;
37288;SDS011;23174;49.462;11.000;2023-03-12T01:06:16;7.93;;;7.10;;
37288;SDS011;23174;49.462;11.000;2023-03-12T01:08:17;8.88;;;7.10;;
37288;SDS011;23174;49.462;11.000;2023-03-12T01:10:18;8.20;;;7.40;;
37288;SDS011;23174;49.462;11.000;2023-03-12T01:12:19;9.32;;;7.55;;
37288;SDS011;23174;49.462;11.000;2023-03-12T01:14:20;8.80;;;7.75;;
37288;SDS011;23174;49.462;11.000;2023-03-12T01:16:21;8.30;;;7.50;;
37288;SDS011;23174;49.462;11.000;2023-03-12T01:18:26;8.57;;;7.68;;
37288;SDS011;23174;49.462;11.000;2023-03-12T01:20:27;9.40;;;7.80;;
37288;SDS011;23174;49.462;11.000;2023-03-12T01:22:28;10.13;;;7.90;;
37288;SDS011;23174;49.462;11.000;2023-03-12T01:24:29;10.45;;;7.43;;
37288;SDS011;23174;49.462;11.000;2023-03-12T01:26:29;9.23;;;8.15;;
37288;SDS011;23174;49.462;11.000;2023-03-12T01:28:30;7.93;;;7.00;;
37288;SDS011;23174;49.462;11.000;2023-03-12T01:30:30;9.05;;;7.50;;
37288;SDS011;23174;49.462;11.000;2023-03-12T01:32:31;8.98;;;8.07;;
37288;SDS011;23174;49.462;11.000;2023-03-12T01:34:32;9.38;;;7.22;;
37288;SDS011;23174;49.462;11.000;2023-03-12T01:36:34;10.45;;;7.78;;
37288;SDS011;23174;49.462;11.000;2023-03-12T01:38:34;10.15;;;7.00;;
37288;SDS011;23174;49.462;11.000;2023-03-12T01:40:35;14.45;;;7.10;;
37288;SDS011;23174;49.462;11.000;2023-03-12T01:42:37;10.00;;;7.40;;
37288;SDS011;23174;49.462;11.000;2023-03-12T01:45:49;8.52;;;7.55;;
37288;SDS011;23174;49.462;11.000;2023-03-12T01:47:27;10.40;;;7.07;;
37288;SDS011;23174;49.462;11.000;2023-03-12T01:49:31;9.20;;;7.18;;
37288;SDS011;23174;49.462;11.000;2023-03-12T01:51:53;8.38;;;7.03;;
37288;SDS011;23174;49.462;11.000;2023-03-12T01:54:01;9.77;;;6.78;;
37288;SDS011;23174;49.462;11.000;2023-03-12T01:56:05;8.38;;;7.32;;
37288;SDS011;23174;49.462;11.000;2023-03-12T01:58:07;7.45;;;6.68;;
37288;SDS011;23174;49.462;11.000;2023-03-12T02:00:10;8.38;;;6.55;;
37288;SDS011;23174;49.462;11.000;2023-03-12T02:02:18;7.07;;;6.40;;
37288;SDS011;23174;49.462;11.000;2023-03-12T02:04:25;7.18;;;6.47;;
37288;SDS011;23174;49.462;11.000;2023-03-12T02:06:36;7.53;;;6.78;;
37288;SDS011;23174;49.462;11.000;2023-03-12T02:08:43;6.80;;;6.03;;
37288;SDS011;23174;49.462;11.000;2023-03-12T02:10:46;6.38;;;5.55;;
37288;SDS011;23174;49.462;11.000;2023-03-12T02:12:47;9.55;;;6.00;;
37288;SDS011;23174;49.462;11.000;2023-03-12T02:14:48;7.20;;;5.82;;
37288;SDS011;23174;49.462;11.000;2023-03-12T02:16:48;7.50;;;5.97;;
37288;SDS011;23174;49.462;11.000;2023-03-12T02:18:49;6.68;;;6.00;;
37288;SDS011;23174;49.462;11.000;2023-03-12T02:23:23;6.13;;;5.45;;
37288;SDS011;23174;49.462;11.000;2023-03-12T02:25:27;7.35;;;5.30;;
37288;SDS011;23174;49.462;11.000;2023-03-12T02:27:33;6.28;;;5.60;;
37288;SDS011;23174;49.462;11.000;2023-03-12T02:29:36;7.15;;;5.78;;
37288;SDS011;23174;49.462;11.000;2023-03-12T02:31:42;6.78;;;5.78;;
37288;SDS011;23174;49.462;11.000;2023-03-12T02:33:44;6.82;;;5.13;;
37288;SDS011;23174;49.462;11.000;2023-03-12T02:35:46;6.55;;;5.57;;
37288;SDS011;23174;49.462;11.000;2023-03-12T02:37:51;5.13;;;4.68;;
37288;SDS011;23174;49.462;11.000;2023-03-12T02:39:55;5.88;;;5.32;;
37288;SDS011;23174;49.462;11.000;2023-03-12T02:42:18;5.47;;;4.93;;
37288;SDS011;23174;49.462;11.000;2023-03-12T02:46:31;7.78;;;5.70;;
37288;SDS011;23174;49.462;11.000;2023-03-12T02:48:40;5.38;;;4.88;;
37288;SDS011;23174;49.462;11.000;2023-03-12T02:50:41;6.28;;;5.18;;
37288;SDS011;23174;49.462;11.000;2023-03-12T02:52:42;6.07;;;4.72;;
37288;SDS011;23174;49.462;11.000;2023-03-12T02:54:42;6.47;;;4.97;;
37288;SDS011;23174;49.462;11.000;2023-03-12T02:56:43;7.93;;;5.10;;
37288;SDS011;23174;49.462;11.000;2023-03-12T02:58:43;6.47;;;5.00;;
37288;SDS011;23174;49.462;11.000;2023-03-12T03:00:44;5.03;;;4.53;;
37288;SDS011;23174;49.462;11.000;2023-03-12T03:02:44;5.32;;;4.82;;
37288;SDS011;23174;49.462;11.000;2023-03-12T03:04:45;14.77;;;5.20;;
37288;SDS011;23174;49.462;11.000;2023-03-12T03:06:46;6.88;;;4.47;;
37288;SDS011;23174;49.462;11.000;2023-03-12T03:08:47;5.55;;;4.45;;
37288;SDS011;23174;49.462;11.000;2023-03-12T03:10:49;6.07;;;4.70;;
37288;SDS011;23174;49.462;11.000;2023-03-12T03:12:50;5.13;;;4.63;;
37288;SDS011;23174;49.462;11.000;2023-03-12T03:14:51;5.10;;;4.60;;
37288;SDS011;23174;49.462;11.000;2023-03-12T03:16:52;5.13;;;4.72;;
37288;SDS011;23174;49.462;11.000;2023-03-12T03:18:52;5.85;;;4.55;;
37288;SDS011;23174;49.462;11.000;2023-03-12T03:22:57;5.35;;;4.65;;
37288;SDS011;23174;49.462;11.000;2023-03-12T03:24:58;4.88;;;4.47;;
37288;SDS011;23174;49.462;11.000;2023-03-12T03:26:58;5.55;;;4.70;;
37288;SDS011;23174;49.462;11.000;2023-03-12T03:28:59;8.23;;;5.05;;
37288;SDS011;23174;49.462;11.000;2023-03-12T03:30:59;5.32;;;4.38;;
37288;SDS011;23174;49.462;11.000;2023-03-12T03:33:01;6.78;;;4.00;;
37288;SDS011;23174;49.462;11.000;2023-03-12T03:35:01;5.20;;;4.63;;
37288;SDS011;23174;49.462;11.000;2023-03-12T03:37:02;6.13;;;4.30;;
37288;SDS011;23174;49.462;11.000;2023-03-12T03:39:03;5.25;;;4.75;;
37288;SDS011;23174;49.462;11.000;2023-03-12T03:41:04;5.85;;;4.40;;
37288;SDS011;23174;49.462;11.000;2023-03-12T03:43:04;5.93;;;4.50;;
37288;SDS011;23174;49.462;11.000;2023-03-12T03:45:05;6.30;;;5.07;;
37288;SDS011;23174;49.462;11.000;2023-03-12T03:47:07;4.88;;;4.13;;
37288;SDS011;23174;49.462;11.000;2023-03-12T03:49:07;5.38;;;4.03;;
37288;SDS011;23174;49.462;11.000;2023-03-12T03:51:08;5.03;;;4.47;;
37288;SDS011;23174;49.462;11.000;2023-03-12T03:53:10;5.35;;;4.80;;
37288;SDS011;23174;49.462;11.000;2023-03-12T03:55:11;5.15;;;4.35;;
37288;SDS011;23174;49.462;11.000;2023-03-12T03:57:12;5.22;;;4.72;;
37288;SDS011;23174;49.462;11.000;2023-03-12T03:59:12;4.40;;;4.00;;
37288;SDS011;23174;49.462;11.000;2023-03-12T04:01:13;5.90;;;4.30;;
37288;SDS011;23174;49.462;11.000;2023-03-12T04:03:14;5.13;;;4.15;;
37288;SDS011;23174;49.462;11.000;2023-03-12T04:05:15;4.68;;;4.20;;
37288;SDS011;23174;49.462;11.000;2023-03-12T04:07:18;5.40;;;4.20;;
37288;SDS011;23174;49.462;11.000;2023-03-12T04:09:20;5.97;;;4.43;;
37288;SDS011;23174;49.462;11.000;2023-03-12T04:11:20;4.70;;;4.15;;
37288;SDS011;23174;49.462;11.000;2023-03-12T04:13:21;7.82;;;4.10;;
37288;SDS011;23174;49.462;11.000;2023-03-12T04:15:22;4.72;;;4.30;;
37288;SDS011;23174;49.462;11.000;2023-03-12T04:17:23;5.65;;;4.45;;
37288;SDS011;23174;49.462;11.000;2023-03-12T04:19:24;6.22;;;3.85;;
37288;SDS011;23174;49.462;11.000;2023-03-12T04:21:24;4.53;;;3.85;;
37288;SDS011;23174;49.462;11.000;2023-03-12T04:23:25;4.72;;;3.83;;
37288;SDS011;23174;49.462;11.000;2023-03-12T04:25:26;4.70;;;4.22;;
37288;SDS011;23174;49.462;11.000;2023-03-12T04:27:26;4.38;;;3.97;;
37288;SDS011;23174;49.462;11.000;2023-03-12T04:29:27;4.63;;;3.70;;
37288;SDS011;23174;49.462;11.000;2023-03-12T04:31:27;6.15;;;4.70;;
37288;SDS011;23174;49.462;11.000;2023-03-12T04:33:29;4.40;;;4.00;;
37288;SDS011;23174;49.462;11.000;2023-03-12T04:35:31;4.75;;;4.18;;
37288;SDS011;23174;49.462;11.000;2023-03-12T04:37:32;4.35;;;3.80;;
37288;SDS011;23174;49.462;11.000;2023-03-12T04:39:33;7.22;;;3.97;;
37288;SDS011;23174;49.462;11.000;2023-03-12T04:41:34;6.47;;;4.22;;
37288;SDS011;23174;49.462;11.000;2023-03-12T04:43:35;4.20;;;3.80;;
37288;SDS011;23174;49.462;11.000;2023-03-12T04:45:36;4.47;;;3.60;;
37288;SDS011;23174;49.462;11.000;2023-03-12T04:47:38;5.05;;;4.15;;
37288;SDS011;23174;49.462;11.000;2023-03-12T04:49:38;6.75;;;4.13;;
37288;SDS011;23174;49.462;11.000;2023-03-12T04:51:39;4.55;;;3.45;;
37288;SDS011;23174;49.462;11.000;2023-03-12T04:53:39;5.43;;;3.90;;
37288;SDS011;23174;49.462;11.000;2023-03-12T04:55:40;4.65;;;4.20;;
37288;SDS011;23174;49.462;11.000;2023-03-12T04:57:41;5.97;;;3.97;;
37288;SDS011;23174;49.462;11.000;2023-03-12T04:59:42;6.72;;;4.05;;
37288;SDS011;23174;49.462;11.000;2023-03-12T05:01:42;4.05;;;3.65;;
37288;SDS011;23174;49.462;11.000;2023-03-12T05:03:43;4.20;;;3.80;;
37288;SDS011;23174;49.462;11.000;2023-03-12T05:05:44;4.32;;;3.60;;
37288;SDS011;23174;49.462;11.000;2023-03-12T05:07:44;4.20;;;3.80;;
37288;SDS011;23174;49.462;11.000;2023-03-12T05:09:45;6.45;;;3.83;;
37288;SDS011;23174;49.462;11.000;2023-03-12T05:11:46;4.63;;;3.60;;
37288;SDS011;23174;49.462;11.000;2023-03-12T05:13:46;5.07;;;4.20;;
37288;SDS011;23174;49.462;11.000;2023-03-12T05:15:48;6.13;;;3.72;;
37288;SDS011;23174;49.462;11.000;2023-03-12T05:17:49;5.78;;;4.07;;
37288;SDS011;23174;49.462;11.000;2023-03-12T05:19:50;4.43;;;3.72;;
37288;SDS011;23174;49.462;11.000;2023-03-12T05:21:50;4.68;;;3.67;;
37288;SDS011;23174;49.462;11.000;2023-03-12T05:23:51;4.13;;;3.65;;
37288;SDS011;23174;49.462;11.000;2023-03-12T05:25:51;4.45;;;4.05;;
37288;SDS011;23174;49.462;11.000;2023-03-12T05:27:52;4.35;;;3.80;;
37288;SDS011;23174;49.462;11.000;2023-03-12T05:29:54;5.93;;;4.18;;
37288;SDS011;23174;49.462;11.000;2023-03-12T05:31:55;3.80;;;3.50;;
37288;SDS011;23174;49.462;11.000;2023-03-12T05:33:55;4.55;;;3.50;;
37288;SDS011;23174;49.462;11.000;2023-03-12T05:35:56;4.03;;;3.28;;
37288;SDS011;23174;49.462;11.000;2023-03-12T05:37:56;4.32;;;3.47;;
37288;SDS011;23174;49.462;11.000;2023-03-12T05:39:57;4.32;;;3.92;;
37288;SDS011;23174;49.462;11.000;2023-03-12T05:41:57;4.90;;;3.90;;
37288;SDS011;23174;49.462;11.000;2023-03-12T05:43:59;5.15;;;3.50;;
37288;SDS011;23174;49.462;11.000;2023-03-12T05:46:01;4.30;;;3.90;;
37288;SDS011;23174;49.462;11.000;2023-03-12T05:48:03;4.95;;;3.38;;
37288;SDS011;23174;49.462;11.000;2023-03-12T05:50:04;4.75;;;3.78;;
37288;SDS011;23174;49.462;11.000;2023-03-12T05:52:04;6.13;;;3.15;;
37288;SDS011;23174;49.462;11.000;2023-03-12T05:54:05;4.60;;;3.60;;
37288;SDS011;23174;49.462;11.000;2023-03-12T05:56:07;6.88;;;3.88;;
37288;SDS011;23174;49.462;11.000;2023-03-12T05:58:10;4.90;;;3.70;;
37288;SDS011;23174;49.462;11.000;2023-03-12T06:00:12;3.60;;;3.30;;
37288;SDS011;23174;49.462;11.000;2023-03-12T06:02:13;4.10;;;3.70;;
37288;SDS011;23174;49.462;11.000;2023-03-12T06:04:14;3.78;;;3.35;;
37288;SDS011;23174;49.462;11.000;2023-03-12T06:06:14;6.05;;;3.50;;
37288;SDS011;23174;49.462;11.000;2023-03-12T06:08:15;3.97;;;3.30;;
37288;SDS011;23174;49.462;11.000;2023-03-12T06:10:16;4.47;;;3.70;;
37288;SDS011;23174;49.462;11.000;2023-03-12T06:12:18;4.00;;;3.60;;
37288;SDS011;23174;49.462;11.000;2023-03-12T06:14:18;4.10;;;3.50;;
37288;SDS011;23174;49.462;11.000;2023-03-12T06:16:20;5.28;;;3.35;;
37288;SDS011;23174;49.462;11.000;2023-03-12T06:18:22;5.05;;;3.25;;
37288;SDS011;23174;49.462;11.000;2023-03-12T06:20:22;4.05;;;3.10;;
37288;SDS011;23174;49.462;11.000;2023-03-12T06:22:23;3.83;;;3.30;;
37288;SDS011;23174;49.462;11.000;2023-03-12T06:24:24;3.83;;;3.47;;
37288;SDS011;23174;49.462;11.000;2023-03-12T06:26:25;3.60;;;3.22;;
37288;SDS011;23174;49.462;11.000;2023-03-12T06:28:26;4.53;;;3.65;;
37288;SDS011;23174;49.462;11.000;2023-03-12T06:30:26;3.85;;;3.55;;
37288;SDS011;23174;49.462;11.000;2023-03-12T06:32:27;5.28;;;3.75;;
37288;SDS011;23174;49.462;11.000;2023-03-12T06:34:28;4.53;;;3.50;;
37288;SDS011;23174;49.462;11.000;2023-03-12T06:36:28;4.40;;;3.58;;
37288;SDS011;23174;49.462;11.000;2023-03-12T06:38:29;5.15;;;3.97;;
37288;SDS011;23174;49.462;11.000;2023-03-12T06:40:30;4.28;;;3.40;;
37288;SDS011;23174;49.462;11.000;2023-03-12T06:42:32;4.40;;;3.85;;
37288;SDS011;23174;49.462;11.000;2023-03-12T06:44:33;5.55;;;3.50;;
37288;SDS011;23174;49.462;11.000;2023-03-12T06:46:33;4.10;;;3.38;;
37288;SDS011;23174;49.462;11.000;2023-03-12T06:48:34;4.72;;;3.50;;
37288;SDS011;23174;49.462;11.000;2023-03-12T06:50:40;3.72;;;3.38;;
37288;SDS011;23174;49.462;11.000;2023-03-12T06:52:40;5.50;;;3.58;;
37288;SDS011;23174;49.462;11.000;2023-03-12T06:54:41;4.00;;;3.60;;
37288;SDS011;23174;49.462;11.000;2023-03-12T06:56:42;5.45;;;4.30;;
37288;SDS011;23174;49.462;11.000;2023-03-12T06:58:42;5.05;;;3.85;;
37288;SDS011;23174;49.462;11.000;2023-03-12T07:00:43;6.70;;;4.45;;
37288;SDS011;23174;49.462;11.000;2023-03-12T07:02:44;9.77;;;7.32;;
37288;SDS011;23174;49.462;11.000;2023-03-12T07:04:44;11.20;;;5.90;;
37288;SDS011;23174;49.462;11.000;2023-03-12T07:06:45;7.43;;;5.05;;
37288;SDS011;23174;49.462;11.000;2023-03-12T07:08:50;7.85;;;5.20;;
37288;SDS011;23174;49.462;11.000;2023-03-12T07:10:51;7.28;;;4.93;;
37288;SDS011;23174;49.462;11.000;2023-03-12T07:12:52;4.82;;;4.32;;
37288;SDS011;23174;49.462;11.000;2023-03-12T07:14:53;7.80;;;5.95;;
37288;SDS011;23174;49.462;11.000;2023-03-12T07:16:54;3.80;;;3.42;;
37288;SDS011;23174;49.462;11.000;2023-03-12T07:18:55;3.47;;;2.97;;
37288;SDS011;23174;49.462;11.000;2023-03-12T07:20:56;3.53;;;3.20;;
37288;SDS011;23174;49.462;11.000;2023-03-12T07:22:57;4.32;;;3.08;;
37288;SDS011;23174;49.462;11.000;2023-03-12T07:24:59;3.05;;;2.60;;
37288;SDS011;23174;49.462;11.000;2023-03-12T07:26:59;4.10;;;3.03;;
37288;SDS011;23174;49.462;11.000;2023-03-12T07:29:00;3.50;;;3.20;;
37288;SDS011;23174;49.462;11.000;2023-03-12T07:31:02;5.38;;;3.30;;
37288;SDS011;23174;49.462;11.000;2023-03-12T07:33:04;3.55;;;3.25;;
37288;SDS011;23174;49.462;11.000;2023-03-12T07:35:07;3.30;;;3.00;;
37288;SDS011;23174;49.462;11.000;2023-03-12T07:37:08;3.47;;;3.00;;
37288;SDS011;23174;49.462;11.000;2023-03-12T07:39:09;3.90;;;3.47;;
37288;SDS011;23174;49.462;11.000;2023-03-12T07:41:09;3.60;;;2.90;;
37288;SDS011;23174;49.462;11.000;2023-03-12T07:43:10;4.55;;;3.13;;
37288;SDS011;23174;49.462;11.000;2023-03-12T07:45:11;4.82;;;3.20;;
37288;SDS011;23174;49.462;11.000;2023-03-12T07:47:12;3.13;;;2.88;;
37288;SDS011;23174;49.462;11.000;2023-03-12T07:49:13;3.28;;;2.72;;
37288;SDS011;23174;49.462;11.000;2023-03-12T07:51:14;4.35;;;3.10;;
37288;SDS011;23174;49.462;11.000;2023-03-12T07:53:14;4.70;;;3.78;;
37288;SDS011;23174;49.462;11.000;2023-03-12T07:55:15;6.32;;;5.30;;
37288;SDS011;23174;49.462;11.000;2023-03-12T07:57:16;6.07;;;5.45;;
37288;SDS011;23174;49.462;11.000;2023-03-12T07:59:17;8.98;;;7.03;;
37288;SDS011;23174;49.462;11.000;2023-03-12T08:01:18;11.38;;;7.38;;
37288;SDS011;23174;49.462;11.000;2023-03-12T08:03:19;6.15;;;5.18;;
37288;SDS011;23174;49.462;11.000;2023-03-12T08:05:20;5.10;;;3.85;;
37288;SDS011;23174;49.462;11.000;2023-03-12T08:07:23;6.45;;;3.22;;
37288;SDS011;23174;49.462;11.000;2023-03-12T08:09:24;3.50;;;3.03;;
37288;SDS011;23174;49.462;11.000;2023-03-12T08:11:24;4.88;;;3.13;;
37288;SDS011;23174;49.462;11.000;2023-03-12T08:13:25;3.17;;;2.88;;
37288;SDS011;23174;49.462;11.000;2023-03-12T08:15:26;3.22;;;2.72;;
37288;SDS011;23174;49.462;11.000;2023-03-12T08:17:26;3.80;;;2.80;;
37288;SDS011;23174;49.462;11.000;2023-03-12T08:19:27;3.95;;;3.00;;
37288;SDS011;23174;49.462;11.000;2023-03-12T08:21:28;3.92;;;2.60;;
37288;SDS011;23174;49.462;11.000;2023-03-12T08:23:28;3.97;;;3.15;;
37288;SDS011;23174;49.462;11.000;2023-03-12T08:25:29;3.60;;;2.75;;
37288;SDS011;23174;49.462;11.000;2023-03-12T08:27:30;2.67;;;2.47;;
37288;SDS011;23174;49.462;11.000;2023-03-12T08:29:31;4.32;;;3.10;;
37288;SDS011;23174;49.462;11.000;2023-03-12T08:31:32;4.05;;;3.20;;
37288;SDS011;23174;49.462;11.000;2023-03-12T08:33:33;3.50;;;2.83;;
37288;SDS011;23174;49.462;11.000;2023-03-12T08:35:33;3.78;;;2.97;;
37288;SDS011;23174;49.462;11.000;2023-03-12T08:37:34;5.22;;;3.13;;
37288;SDS011;23174;49.462;11.000;2023-03-12T08:39:35;3.47;;;2.65;;
37288;SDS011;23174;49.462;11.000;2023-03-12T08:41:36;3.72;;;2.85;;
37288;SDS011;23174;49.462;11.000;2023-03-12T08:43:36;3.17;;;2.90;;
37288;SDS011;23174;49.462;11.000;2023-03-12T08:45:37;4.78;;;3.10;;
37288;SDS011;23174;49.462;11.000;2023-03-12T08:47:38;3.22;;;2.65;;
37288;SDS011;23174;49.462;11.000;2023-03-12T08:49:40;3.72;;;3.10;;
37288;SDS011;23174;49.462;11.000;2023-03-12T08:51:41;2.85;;;2.55;;
37288;SDS011;23174;49.462;11.000;2023-03-12T08:53:41;4.07;;;3.10;;
37288;SDS011;23174;49.462;11.000;2023-03-12T08:55:42;4.38;;;2.95;;
37288;SDS011;23174;49.462;11.000;2023-03-12T08:57:44;4.15;;;3.33;;
37288;SDS011;23174;49.462;11.000;2023-03-12T08:59:45;3.72;;;3.13;;
37288;SDS011;23174;49.462;11.000;2023-03-12T09:01:46;5.35;;;3.47;;
37288;SDS011;23174;49.462;11.000;2023-03-12T09:03:46;3.83;;;3.20;;
37288;SDS011;23174;49.462;11.000;2023-03-12T09:05:50;3.17;;;2.85;;
37288;SDS011;23174;49.462;11.000;2023-03-12T09:08:00;5.65;;;2.88;;
37288;SDS011;23174;49.462;11.000;2023-03-12T09:10:01;3.22;;;2.92;;
37288;SDS011;23174;49.462;11.000;2023-03-12T09:12:02;3.72;;;3.08;;
37288;SDS011;23174;49.462;11.000;2023-03-12T09:14:04;2.92;;;2.60;;
37288;SDS011;23174;49.462;11.000;2023-03-12T09:16:04;3.50;;;2.63;;
37288;SDS011;23174;49.462;11.000;2023-03-12T09:18:06;4.15;;;3.45;;
37288;SDS011;23174;49.462;11.000;2023-03-12T09:20:07;3.13;;;2.80;;
37288;SDS011;23174;49.462;11.000;2023-03-12T09:22:12;4.53;;;2.90;;
37288;SDS011;23174;49.462;11.000;2023-03-12T09:24:13;3.03;;;2.67;;
37288;SDS011;23174;49.462;11.000;2023-03-12T09:26:13;2.67;;;2.40;;
37288;SDS011;23174;49.462;11.000;2023-03-12T09:28:14;3.60;;;2.55;;
37288;SDS011;23174;49.462;11.000;2023-03-12T09:30:16;2.95;;;2.28;;
37288;SDS011;23174;49.462;11.000;2023-03-12T09:32:18;4.63;;;2.80;;
37288;SDS011;23174;49.462;11.000;2023-03-12T09:34:19;4.10;;;2.85;;
37288;SDS011;23174;49.462;11.000;2023-03-12T09:36:20;3.00;;;2.50;;
37288;SDS011;23174;49.462;11.000;2023-03-12T09:38:20;2.45;;;2.30;;
37288;SDS011;23174;49.462;11.000;2023-03-12T09:40:21;6.07;;;2.80;;
37288;SDS011;23174;49.462;11.000;2023-03-12T09:42:25;3.65;;;2.72;;
37288;SDS011;23174;49.462;11.000;2023-03-12T09:44:39;6.40;;;2.45;;
37288;SDS011;23174;49.462;11.000;2023-03-12T09:46:47;3.10;;;2.72;;
37288;SDS011;23174;49.462;11.000;2023-03-12T09:48:52;3.50;;;2.80;;
37288;SDS011;23174;49.462;11.000;2023-03-12T09:50:56;2.72;;;2.53;;
37288;SDS011;23174;49.462;11.000;2023-03-12T09:53:04;2.75;;;2.47;;
37288;SDS011;23174;49.462;11.000;2023-03-12T09:55:27;3.45;;;2.47;;
37288;SDS011;23174;49.462;11.000;2023-03-12T09:57:35;4.10;;;2.57;;
37288;SDS011;23174;49.462;11.000;2023-03-12T09:59:36;2.75;;;2.40;;
37288;SDS011;23174;49.462;11.000;2023-03-12T10:01:46;4.28;;;2.45;;
37288;SDS011;23174;49.462;11.000;2023-03-12T10:03:53;5.10;;;2.97;;
37288;SDS011;23174;49.462;11.000;2023-03-12T10:10:29;4.18;;;2.75;;
37288;SDS011;23174;49.462;11.000;2023-03-12T10:22:14;4.05;;;2.88;;
37288;SDS011;23174;49.462;11.000;2023-03-12T10:27:13;2.97;;;2.13;;
37288;SDS011;23174;49.462;11.000;2023-03-12T10:29:16;4.03;;;2.20;;
37288;SDS011;23174;49.462;11.000;2023-03-12T10:31:36;5.35;;;2.17;;
37288;SDS011;23174;49.462;11.000;2023-03-12T10:33:58;4.22;;;2.85;;
37288;SDS011;23174;49.462;11.000;2023-03-12T10:36:00;3.47;;;2.47;;
37288;SDS011;23174;49.462;11.000;2023-03-12T10:38:08;6.30;;;2.33;;
37288;SDS011;23174;49.462;11.000;2023-03-12T10:40:18;3.15;;;2.35;;
37288;SDS011;23174;49.462;11.000;2023-03-12T10:42:23;4.07;;;2.50;;
37288;SDS011;23174;49.462;11.000;2023-03-12T10:44:25;2.17;;;1.98;;
37288;SDS011;23174;49.462;11.000;2023-03-12T10:49:16;3.05;;;2.42;;
37288;SDS011;23174;49.462;11.000;2023-03-12T10:51:22;2.92;;;2.17;;
37288;SDS011;23174;49.462;11.000;2023-03-12T10:53:25;4.45;;;2.40;;
37288;SDS011;23174;49.462;11.000;2023-03-12T10:55:28;2.17;;;1.92;;
37288;SDS011;23174;49.462;11.000;2023-03-12T10:57:37;2.75;;;2.10;;
37288;SDS011;23174;49.462;11.000;2023-03-12T10:59:40;4.60;;;2.63;;
37288;SDS011;23174;49.462;11.000;2023-03-12T11:01:43;3.90;;;2.40;;
37288;SDS011;23174;49.462;11.000;2023-03-12T11:03:49;3.65;;;2.67;;
37288;SDS011;23174;49.462;11.000;2023-03-12T11:05:51;3.10;;;2.50;;
37288;SDS011;23174;49.462;11.000;2023-03-12T11:07:53;5.95;;;2.60;;
37288;SDS011;23174;49.462;11.000;2023-03-12T11:12:24;4.50;;;2.72;;
37288;SDS011;23174;49.462;11.000;2023-03-12T11:14:27;3.13;;;2.25;;
37288;SDS011;23174;49.462;11.000;2023-03-12T11:16:29;4.32;;;2.70;;
37288;SDS011;23174;49.462;11.000;2023-03-12T11:18:33;3.90;;;2.70;;
37288;SDS011;23174;49.462;11.000;2023-03-12T11:20:35;4.85;;;2.95;;
37288;SDS011;23174;49.462;11.000;2023-03-12T11:22:35;2.47;;;2.17;;
37288;SDS011;23174;49.462;11.000;2023-03-12T11:24:40;3.45;;;2.60;;
37288;SDS011;23174;49.462;11.000;2023-03-12T11:27:04;3.03;;;2.35;;
37288;SDS011;23174;49.462;11.000;2023-03-12T11:31:22;3.58;;;2.65;;
37288;SDS011;23174;49.462;11.000;2023-03-12T11:33:26;4.32;;;2.83;;
37288;SDS011;23174;49.462;11.000;2023-03-12T11:35:31;2.72;;;2.45;;
37288;SDS011;23174;49.462;11.000;2023-03-12T11:40:12;3.70;;;2.35;;
37288;SDS011;23174;49.462;11.000;2023-03-12T11:44:52;4.40;;;2.65;;
37288;SDS011;23174;49.462;11.000;2023-03-12T11:49:26;2.72;;;2.30;;
37288;SDS011;23174;49.462;11.000;2023-03-12T11:56:27;2.47;;;2.00;;
37288;SDS011;23174;49.462;11.000;2023-03-12T12:05:40;2.83;;;2.50;;
37288;SDS011;23174;49.462;11.000;2023-03-12T12:17:47;4.32;;;2.55;;
37288;SDS011;23174;49.462;11.000;2023-03-12T12:20:00;3.47;;;2.67;;
37288;SDS011;23174;49.462;11.000;2023-03-12T12:27:25;3.90;;;2.80;;
37288;SDS011;23174;49.462;11.000;2023-03-12T12:29:31;4.65;;;2.97;;
37288;SDS011;23174;49.462;11.000;2023-03-12T12:31:44;3.45;;;2.72;;
37288;SDS011;23174;49.462;11.000;2023-03-12T12:36:37;3.78;;;2.90;;
37288;SDS011;23174;49.462;11.000;2023-03-12T12:40:52;2.80;;;2.60;;
37288;SDS011;23174;49.462;11.000;2023-03-12T12:45:46;3.15;;;2.83;;
37288;SDS011;23174;49.462;11.000;2023-03-12T12:47:52;3.67;;;3.25;;
37288;SDS011;23174;49.462;11.000;2023-03-12T12:49:56;4.10;;;3.80;;
37288;SDS011;23174;49.462;11.000;2023-03-12T12:52:02;4.15;;;3.78;;
37288;SDS011;23174;49.462;11.000;2023-03-12T12:56:30;3.95;;;3.63;;
37288;SDS011;23174;49.462;11.000;2023-03-12T12:59:07;4.40;;;4.10;;
37288;SDS011;23174;49.462;11.000;2023-03-12T13:01:23;4.60;;;4.20;;
37288;SDS011;23174;49.462;11.000;2023-03-12T13:03:25;6.43;;;4.18;;
37288;SDS011;23174;49.462;11.000;2023-03-12T13:05:45;4.43;;;4.10;;
37288;SDS011;23174;49.462;11.000;2023-03-12T13:07:52;5.35;;;4.85;;
37288;SDS011;23174;49.462;11.000;2023-03-12T13:09:55;4.80;;;4.40;;
37288;SDS011;23174;49.462;11.000;2023-03-12T13:11:56;4.53;;;4.05;;
37288;SDS011;23174;49.462;11.000;2023-03-12T13:18:32;5.10;;;4.70;;
37288;SDS011;23174;49.462;11.000;2023-03-12T13:22:52;2.65;;;2.33;;
37288;SDS011;23174;49.462;11.000;2023-03-12T13:27:30;0.98;;;0.80;;
37288;SDS011;23174;49.462;11.000;2023-03-12T13:29:38;1.27;;;1.00;;
37288;SDS011;23174;49.462;11.000;2023-03-12T13:31:40;3.72;;;1.08;;
37288;SDS011;23174;49.462;11.000;2023-03-12T13:33:42;3.40;;;3.13;;